Time;durP1;ratioP1;P1;durP2;ratioP2;P2;SDS_P1;SDS_P2;PMS_P1;PMS_P2;Temp;Humidity;BMP_temperature;BMP_pressure;BME280_temperature;BME280_humidity;BME280_pressure;Samples;Min_cycle;Max_cycle;Signal;HPM_P1;HPM_P2
2021/03/03 00:00:24;;;;;;;93.45;11.52;;;0.80;99.90;;;;;;4947646;27;20427;-86
2021/03/03 00:02:46;;;;;;;62.95;11.20;;;0.90;99.90;;;;;;4946268;27;20082;-87
2021/03/03 00:05:11;;;;;;;61.70;10.68;;;0.80;99.90;;;;;;4952877;27;20083;-88
2021/03/03 00:07:35;;;;;;;78.75;11.88;;;0.70;99.90;;;;;;4951269;27;20086;-89
2021/03/03 00:10:06;;;;;;;71.33;10.67;;;0.80;99.90;;;;;;4951535;27;20132;-88
2021/03/03 00:12:30;;;;;;;69.05;12.25;;;0.80;99.90;;;;;;4956610;27;20090;-89
2021/03/03 00:14:55;;;;;;;80.07;13.07;;;0.70;99.90;;;;;;4949925;27;20082;-88
2021/03/03 00:17:22;;;;;;;51.90;11.07;;;0.70;99.90;;;;;;4951000;27;20083;-89
2021/03/03 00:19:50;;;;;;;49.85;11.18;;;0.80;99.90;;;;;;4955484;27;20095;-89
2021/03/03 00:22:13;;;;;;;61.58;11.30;;;0.80;99.90;;;;;;4951298;27;20073;-87
2021/03/03 00:24:36;;;;;;;39.50;12.60;;;0.80;99.90;;;;;;4953994;27;20130;-88
2021/03/03 00:26:59;;;;;;;51.97;11.32;;;0.80;99.90;;;;;;4956752;27;20115;-88
2021/03/03 00:29:29;;;;;;;80.35;12.30;;;0.90;99.90;;;;;;4957147;27;20086;-88
2021/03/03 00:31:57;;;;;;;65.93;10.43;;;0.80;99.90;;;;;;4951473;27;25547;-89
2021/03/03 00:34:20;;;;;;;38.80;10.55;;;0.60;99.90;;;;;;4960270;27;20113;-89
2021/03/03 00:36:42;;;;;;;71.35;10.85;;;0.60;99.90;;;;;;4954744;27;20082;-87
2021/03/03 00:39:14;;;;;;;85.22;10.63;;;0.50;99.90;;;;;;4958221;27;20537;-89
2021/03/03 00:41:37;;;;;;;46.00;10.45;;;0.60;99.90;;;;;;4952507;27;20139;-88
2021/03/03 00:44:00;;;;;;;100.63;11.25;;;0.50;99.90;;;;;;4956609;27;20082;-89
2021/03/03 00:46:24;;;;;;;63.70;9.95;;;0.40;99.90;;;;;;4947406;27;20129;-89
2021/03/03 00:48:50;;;;;;;41.93;9.33;;;0.30;99.90;;;;;;4952666;27;20087;-89
2021/03/03 00:51:17;;;;;;;51.47;11.00;;;0.30;99.90;;;;;;4956037;27;20498;-89
2021/03/03 00:53:39;;;;;;;52.22;11.32;;;0.40;99.90;;;;;;4952140;27;20097;-89
2021/03/03 00:56:02;;;;;;;43.15;11.23;;;0.40;99.90;;;;;;4948031;27;20094;-88
2021/03/03 00:58:31;;;;;;;30.23;11.52;;;0.40;99.90;;;;;;4948836;27;20088;-89
2021/03/03 01:00:55;;;;;;;40.70;10.82;;;0.50;99.90;;;;;;4953293;27;21003;-88
2021/03/03 01:03:24;;;;;;;36.85;11.10;;;0.50;99.90;;;;;;4953700;27;20139;-86
2021/03/03 01:05:47;;;;;;;65.85;11.52;;;0.50;99.90;;;;;;4959453;27;20088;-88
2021/03/03 01:08:17;;;;;;;69.90;10.82;;;0.50;99.90;;;;;;4964889;27;20106;-89
2021/03/03 01:10:42;;;;;;;49.35;11.15;;;0.40;99.90;;;;;;4956745;27;20096;-88
2021/03/03 01:13:04;;;;;;;62.73;12.80;;;0.50;99.90;;;;;;4955740;27;20088;-88
2021/03/03 01:15:28;;;;;;;52.33;11.98;;;0.50;99.90;;;;;;4958216;27;20082;-89
2021/03/03 01:17:59;;;;;;;74.10;11.10;;;0.50;99.90;;;;;;4959761;27;20151;-87
2021/03/03 01:20:24;;;;;;;83.22;12.60;;;0.40;99.90;;;;;;4964259;27;20425;-88
2021/03/03 01:22:47;;;;;;;63.13;12.47;;;0.50;99.90;;;;;;4961301;27;20088;-87
2021/03/03 01:25:10;;;;;;;72.28;11.48;;;0.50;99.90;;;;;;4956138;27;20130;-89
2021/03/03 01:27:36;;;;;;;45.03;12.00;;;0.60;99.90;;;;;;4956511;27;20534;-88
2021/03/03 01:30:01;;;;;;;54.90;12.68;;;0.50;99.90;;;;;;4957236;27;20086;-89
2021/03/03 01:32:30;;;;;;;58.92;10.18;;;0.50;99.90;;;;;;4960436;27;20113;-89
2021/03/03 01:34:53;;;;;;;99.85;11.18;;;0.30;99.90;;;;;;4957586;27;20091;-88
2021/03/03 01:37:15;;;;;;;107.53;10.93;;;0.20;99.90;;;;;;4948909;27;20154;-88
2021/03/03 01:39:40;;;;;;;77.50;11.32;;;0.20;99.90;;;;;;4950823;27;20137;-88
2021/03/03 01:42:08;;;;;;;66.83;10.33;;;0.10;99.90;;;;;;4952796;27;21563;-88
2021/03/03 01:44:31;;;;;;;50.15;11.15;;;;;;;;;;4950820;27;20096;-88
2021/03/03 01:46:55;;;;;;;58.63;12.00;;;0.20;99.90;;;;;;4942074;28;20091;-89
2021/03/03 01:49:18;;;;;;;44.40;12.00;;;0.20;99.90;;;;;;4948294;27;20106;-89
2021/03/03 01:51:54;;;;;;;63.50;12.15;;;0.10;99.90;;;;;;4943348;27;20099;-88
2021/03/03 01:54:16;;;;;;;116.68;12.35;;;0.10;99.90;;;;;;4948962;28;20088;-88
2021/03/03 01:56:40;;;;;;;53.00;11.00;;;0.00;99.90;;;;;;4947149;28;20089;-88
2021/03/03 01:59:09;;;;;;;100.82;12.93;;;0.10;99.90;;;;;;4950278;27;20088;-86
2021/03/03 02:01:34;;;;;;;108.47;11.27;;;0.10;99.90;;;;;;4957700;27;20084;-88
2021/03/03 02:04:05;;;;;;;111.23;12.27;;;-0.10;99.90;;;;;;4951767;27;20151;-88
2021/03/03 02:06:34;;;;;;;75.88;10.30;;;-0.10;99.90;;;;;;4959127;27;20084;-88
2021/03/03 02:09:03;;;;;;;142.60;12.60;;;-0.10;99.90;;;;;;4956540;27;20086;-89
2021/03/03 02:11:31;;;;;;;58.08;11.50;;;-0.30;99.90;;;;;;4951228;27;20462;-86
2021/03/03 02:14:06;;;;;;;73.28;11.40;;;-0.20;99.90;;;;;;4950619;27;20546;-87
2021/03/03 02:16:36;;;;;;;79.18;13.00;;;-0.20;99.90;;;;;;4950483;27;20083;-88
2021/03/03 02:19:02;;;;;;;35.33;10.88;;;-0.20;99.90;;;;;;4952734;27;20086;-89
2021/03/03 02:21:43;;;;;;;32.10;11.30;;;-0.10;99.90;;;;;;4955464;27;20085;-88
2021/03/03 02:24:20;;;;;;;81.75;12.23;;;0.00;99.90;;;;;;4956207;27;20531;-88
2021/03/03 02:26:46;;;;;;;80.15;11.23;;;;;;;;;;4953678;27;20098;-88
2021/03/03 02:29:21;;;;;;;75.97;11.80;;;0.00;99.90;;;;;;4955008;27;20086;-88
2021/03/03 02:31:50;;;;;;;75.03;11.48;;;-0.10;99.90;;;;;;4956701;27;20144;-87
2021/03/03 02:34:16;;;;;;;74.53;9.25;;;-0.20;99.90;;;;;;4950996;27;20092;-87
2021/03/03 02:36:41;;;;;;;75.65;10.00;;;-0.20;99.90;;;;;;4953737;27;20145;-87
2021/03/03 02:39:08;;;;;;;77.63;9.68;;;-0.30;99.90;;;;;;4960157;27;20082;-88
2021/03/03 02:41:44;;;;;;;53.72;9.85;;;-0.30;99.90;;;;;;4955680;27;20104;-87
2021/03/03 02:44:07;;;;;;;;;;;-0.30;99.90;;;;;;4944487;27;20091;-87
2021/03/03 02:46:32;;;;;;;72.72;10.48;;;-0.30;99.90;;;;;;4947297;27;19993;-87
2021/03/03 02:48:58;;;;;;;53.20;10.50;;;-0.30;99.90;;;;;;4956497;27;20083;-87
2021/03/03 02:51:25;;;;;;;72.93;9.90;;;-0.40;99.90;;;;;;4959640;27;20104;-86
2021/03/03 02:53:47;;;;;;;62.88;9.75;;;-0.40;99.90;;;;;;4960329;27;20550;-88
2021/03/03 02:56:10;;;;;;;69.18;10.05;;;-0.30;99.90;;;;;;4960347;27;20086;-87
2021/03/03 02:58:38;;;;;;;51.13;10.13;;;-0.40;99.90;;;;;;4954664;27;20140;-87
2021/03/03 03:01:14;;;;;;;87.07;11.75;;;-0.40;99.90;;;;;;4948889;27;20093;-88
2021/03/03 03:03:43;;;;;;;65.53;9.95;;;-0.30;99.90;;;;;;4960296;27;20095;-87
2021/03/03 03:06:09;;;;;;;43.47;9.88;;;-0.40;99.90;;;;;;4955206;27;20136;-87
2021/03/03 03:08:35;;;;;;;47.03;9.45;;;-0.30;99.90;;;;;;4948945;27;22900;-87
2021/03/03 03:11:10;;;;;;;40.92;9.55;;;-0.30;99.90;;;;;;4953177;27;20133;-87
2021/03/03 03:13:40;;;;;;;74.90;10.20;;;-0.40;99.90;;;;;;4955909;27;20096;-87
2021/03/03 03:16:04;;;;;;;31.25;10.18;;;-0.50;99.90;;;;;;4959329;27;20098;-87
2021/03/03 03:18:34;;;;;;;40.13;10.15;;;-0.50;99.90;;;;;;4961344;27;20086;-87
2021/03/03 03:20:59;;;;;;;40.58;10.30;;;-0.40;99.90;;;;;;4959236;27;20595;-85
2021/03/03 03:23:23;;;;;;;58.55;12.20;;;-0.50;99.90;;;;;;4954232;27;20142;-87
2021/03/03 03:25:50;;;;;;;45.60;11.45;;;-0.40;99.90;;;;;;4954114;27;20451;-87
2021/03/03 03:28:14;;;;;;;69.60;10.93;;;-0.30;99.90;;;;;;4948992;27;20084;-87
2021/03/03 03:30:43;;;;;;;54.53;10.55;;;-0.30;99.90;;;;;;4957384;27;20179;-87
2021/03/03 03:33:06;;;;;;;31.00;10.20;;;-0.30;99.90;;;;;;4957553;27;20141;-87
2021/03/03 03:35:37;;;;;;;54.55;10.65;;;-0.30;99.90;;;;;;4954703;27;20098;-86
2021/03/03 03:38:00;;;;;;;57.95;11.48;;;-0.30;99.90;;;;;;4957101;27;20131;-85
2021/03/03 03:40:24;;;;;;;58.97;10.82;;;-0.30;99.90;;;;;;4956765;27;21521;-87
2021/03/03 03:42:47;;;;;;;47.50;11.35;;;-0.30;99.90;;;;;;4960819;27;20105;-87
2021/03/03 03:45:12;;;;;;;50.92;10.98;;;-0.20;99.90;;;;;;4954004;27;20090;-86
2021/03/03 03:47:36;;;;;;;88.32;11.63;;;-0.30;99.90;;;;;;4955652;27;20422;-84
2021/03/03 03:50:04;;;;;;;41.35;11.63;;;-0.40;99.90;;;;;;4952598;27;20103;-86
2021/03/03 03:52:29;;;;;;;59.33;13.02;;;-0.40;99.90;;;;;;4953812;27;20097;-86
2021/03/03 03:54:58;;;;;;;40.45;11.60;;;-0.50;99.90;;;;;;4952851;27;20081;-87
2021/03/03 03:57:22;;;;;;;49.88;10.52;;;-0.50;99.90;;;;;;4953159;27;20086;-86
2021/03/03 03:59:44;;;;;;;50.42;13.18;;;-0.50;99.90;;;;;;4955027;27;20089;-86
2021/03/03 04:02:11;;;;;;;64.88;12.43;;;;;;;;;;4952532;27;20090;-85
2021/03/03 04:04:34;;;;;;;71.00;13.77;;;-0.60;99.90;;;;;;4958391;27;20092;-86
2021/03/03 04:06:57;;;;;;;52.60;13.77;;;-0.50;99.90;;;;;;4954643;27;20126;-86
2021/03/03 04:09:20;;;;;;;55.90;13.20;;;-0.50;99.90;;;;;;4951053;27;20094;-85
2021/03/03 04:11:49;;;;;;;100.57;13.65;;;-0.50;99.90;;;;;;4949615;27;20091;-83
2021/03/03 04:14:14;;;;;;;43.50;10.27;;;-0.60;99.90;;;;;;4951666;27;20093;-85
2021/03/03 04:16:44;;;;;;;70.53;10.23;;;-0.70;99.90;;;;;;4953657;27;20102;-84
2021/03/03 04:19:12;;;;;;;81.40;11.63;;;-0.60;99.90;;;;;;4961830;27;20122;-84
2021/03/03 04:21:35;;;;;;;47.42;10.30;;;;;;;;;;4951805;27;20087;-83
2021/03/03 04:23:59;;;;;;;68.10;11.40;;;-0.70;99.90;;;;;;4956385;27;20096;-85
2021/03/03 04:26:25;;;;;;;48.30;11.43;;;;;;;;;;4951326;27;20096;-86
2021/03/03 04:28:47;;;;;;;37.85;10.45;;;-0.60;99.90;;;;;;4953310;27;20086;-86
2021/03/03 04:31:11;;;;;;;39.78;10.82;;;-0.60;99.90;;;;;;4950153;27;20523;-85
2021/03/03 04:33:34;;;;;;;65.70;10.73;;;-0.50;99.90;;;;;;4953664;27;20086;-85
2021/03/03 04:35:56;;;;;;;62.65;11.40;;;;;;;;;;4950978;27;20082;-85
2021/03/03 04:38:19;;;;;;;57.47;10.32;;;-0.70;99.90;;;;;;4954835;27;20097;-85
2021/03/03 04:40:43;;;;;;;59.65;9.73;;;-0.70;99.90;;;;;;4952616;27;20560;-83
2021/03/03 04:43:06;;;;;;;51.22;10.30;;;-0.70;99.90;;;;;;4958881;27;20449;-84
2021/03/03 04:45:29;;;;;;;45.72;10.75;;;-0.70;99.90;;;;;;4954017;27;20088;-86
2021/03/03 04:47:51;;;;;;;65.22;10.35;;;-0.70;99.90;;;;;;4958122;27;20091;-83
2021/03/03 04:50:14;;;;;;;49.10;10.55;;;-0.80;99.90;;;;;;4960077;27;20086;-83
2021/03/03 04:52:37;;;;;;;51.38;11.38;;;-0.80;99.90;;;;;;4949524;27;20094;-83
2021/03/03 04:55:01;;;;;;;75.28;10.10;;;-0.70;99.90;;;;;;4943789;27;20156;-83
2021/03/03 04:57:23;;;;;;;75.57;11.73;;;-0.70;99.90;;;;;;4955174;27;20095;-81
2021/03/03 04:59:48;;;;;;;82.47;11.13;;;-0.70;99.90;;;;;;4958691;27;20491;-85
2021/03/03 05:02:10;;;;;;;95.93;12.03;;;-0.80;99.90;;;;;;4953537;27;20098;-84
2021/03/03 05:04:33;;;;;;;57.22;11.75;;;-0.70;99.90;;;;;;4954716;27;20137;-84
2021/03/03 05:06:56;;;;;;;72.53;12.98;;;-0.70;99.90;;;;;;4957916;27;20145;-85
2021/03/03 05:09:19;;;;;;;86.55;13.23;;;-0.70;99.90;;;;;;4959719;27;20091;-86
2021/03/03 05:11:41;;;;;;;76.03;13.00;;;-0.80;99.90;;;;;;4957982;27;20421;-84
2021/03/03 05:14:04;;;;;;;87.22;13.25;;;-0.70;99.90;;;;;;4960007;27;20491;-83
2021/03/03 05:16:27;;;;;;;98.00;14.18;;;-0.70;99.90;;;;;;4957390;27;20105;-85
2021/03/03 05:18:50;;;;;;;78.25;13.45;;;-0.70;99.90;;;;;;4938981;28;20145;-84
2021/03/03 05:21:12;;;;;;;62.10;13.52;;;-0.70;99.90;;;;;;4948871;27;20090;-85
2021/03/03 05:23:38;;;;;;;74.20;13.52;;;-0.70;99.90;;;;;;4959660;27;20103;-84
2021/03/03 05:26:03;;;;;;;85.47;12.30;;;-0.70;99.90;;;;;;4944826;27;20093;-84
2021/03/03 05:28:26;;;;;;;76.93;13.15;;;-0.70;99.90;;;;;;4953402;27;20102;-84
2021/03/03 05:30:55;;;;;;;56.28;12.30;;;-0.70;99.90;;;;;;4957808;27;20138;-85
2021/03/03 05:33:29;;;;;;;69.80;11.65;;;-0.70;99.90;;;;;;4953329;27;20501;-84
2021/03/03 05:35:54;;;;;;;68.68;12.38;;;-0.70;99.90;;;;;;4950275;27;20083;-84
2021/03/03 05:38:17;;;;;;;52.75;11.43;;;-0.70;99.90;;;;;;4952752;27;20105;-82
2021/03/03 05:40:39;;;;;;;46.30;13.18;;;-0.60;99.90;;;;;;4954562;27;20148;-84
2021/03/03 05:43:02;;;;;;;62.95;13.23;;;-0.70;99.90;;;;;;4956010;27;20094;-82
2021/03/03 05:45:26;;;;;;;91.35;14.27;;;-0.60;99.90;;;;;;4957248;27;20161;-84
2021/03/03 05:47:49;;;;;;;84.22;14.38;;;-0.60;99.90;;;;;;4956888;27;20516;-82
2021/03/03 05:50:17;;;;;;;75.63;13.20;;;-0.60;99.90;;;;;;4952132;27;20094;-81
2021/03/03 05:52:39;;;;;;;94.40;14.50;;;-0.60;99.90;;;;;;4952151;27;20183;-82
2021/03/03 05:55:05;;;;;;;97.82;12.88;;;-0.60;99.90;;;;;;4955374;27;20085;-82
2021/03/03 05:57:27;;;;;;;106.78;12.60;;;-0.60;99.90;;;;;;4955433;27;20095;-82
2021/03/03 05:59:51;;;;;;;56.53;11.60;;;-0.60;99.90;;;;;;4954529;27;20094;-82
2021/03/03 06:02:15;;;;;;;108.47;12.63;;;-0.70;99.90;;;;;;4954270;27;20437;-82
2021/03/03 06:04:38;;;;;;;61.33;12.98;;;-0.70;99.90;;;;;;4955580;27;20106;-82
2021/03/03 06:07:02;;;;;;;46.78;13.40;;;-0.60;99.90;;;;;;4950071;27;20100;-82
2021/03/03 06:09:24;;;;;;;59.15;13.13;;;-0.60;99.90;;;;;;4953510;27;20094;-81
2021/03/03 06:11:47;;;;;;;84.63;12.60;;;-0.60;99.90;;;;;;4947432;27;20595;-82
2021/03/03 06:14:09;;;;;;;93.28;13.52;;;-0.60;99.90;;;;;;4956939;27;20515;-81
2021/03/03 06:16:32;;;;;;;72.28;12.15;;;-0.60;99.90;;;;;;4945372;27;22807;-82
2021/03/03 06:18:55;;;;;;;67.03;12.80;;;-0.60;99.90;;;;;;4953289;27;20095;-82
2021/03/03 06:21:29;;;;;;;69.50;12.93;;;-0.50;99.90;;;;;;4944911;27;20088;-82
2021/03/03 06:24:01;;;;;;;57.67;13.35;;;-0.50;99.90;;;;;;4942667;27;20096;-82
2021/03/03 06:26:23;;;;;;;62.75;13.15;;;-0.50;99.90;;;;;;4944497;27;20094;-81
2021/03/03 06:28:47;;;;;;;95.65;14.20;;;-0.50;99.90;;;;;;4943025;27;20104;-82
2021/03/03 06:31:30;;;;;;;66.25;13.70;;;-0.50;99.90;;;;;;4944491;27;20473;-81
2021/03/03 06:34:06;;;;;;;58.42;13.27;;;-0.50;99.90;;;;;;4954651;27;21696;-83
2021/03/03 06:36:29;;;;;;;;;;;-0.50;99.90;;;;;;4955125;27;20123;-81
2021/03/03 06:38:52;;;;;;;65.88;12.32;;;-0.40;99.90;;;;;;4957670;27;19973;-82
2021/03/03 06:41:15;;;;;;;58.60;15.65;;;-0.40;99.90;;;;;;4955031;27;20084;-82
2021/03/03 06:43:38;;;;;;;87.78;14.32;;;-0.40;99.90;;;;;;4952046;27;20090;-82
2021/03/03 06:46:16;;;;;;;77.97;14.05;;;-0.40;99.90;;;;;;4955568;27;20150;-82
2021/03/03 06:48:40;;;;;;;91.55;18.63;;;-0.50;99.90;;;;;;4949694;27;20107;-82
2021/03/03 06:51:19;;;;;;;63.90;13.55;;;-0.50;99.90;;;;;;4953175;27;20098;-82
2021/03/03 06:53:42;;;;;;;86.78;13.80;;;-0.50;99.90;;;;;;4943022;27;20547;-81
2021/03/03 06:56:05;;;;;;;104.57;16.85;;;-0.40;99.90;;;;;;4943817;27;20429;-81
2021/03/03 06:58:30;;;;;;;68.88;14.45;;;-0.40;99.90;;;;;;4941395;27;20459;-81
2021/03/03 07:00:54;;;;;;;86.97;14.75;;;-0.50;99.90;;;;;;4943137;27;20090;-82
2021/03/03 07:03:28;;;;;;;77.32;14.25;;;-0.40;99.90;;;;;;4944190;27;20088;-81
2021/03/03 07:05:52;;;;;;;91.68;14.77;;;-0.30;99.90;;;;;;4947947;27;20087;-84
2021/03/03 07:08:14;;;;;;;70.38;14.65;;;-0.30;99.90;;;;;;4949691;27;20100;-82
2021/03/03 07:10:37;;;;;;;43.78;16.20;;;-0.40;99.90;;;;;;4945977;27;20094;-84
2021/03/03 07:13:00;;;;;;;88.35;16.75;;;-0.30;99.90;;;;;;4945998;27;20090;-83
2021/03/03 07:15:31;;;;;;;83.18;14.80;;;-0.20;99.90;;;;;;4953908;27;20489;-82
2021/03/03 07:17:53;;;;;;;97.68;15.13;;;-0.20;99.90;;;;;;4958170;27;20475;-83
2021/03/03 07:20:18;;;;;;;63.30;16.65;;;-0.10;99.90;;;;;;4955594;27;20124;-83
2021/03/03 07:22:42;;;;;;;97.65;16.23;;;-0.10;99.90;;;;;;4951191;27;20148;-82
2021/03/03 07:25:07;;;;;;;63.15;15.80;;;-0.10;99.90;;;;;;4952100;27;20091;-82
2021/03/03 07:27:33;;;;;;;60.05;15.77;;;1.80;99.90;;;;;;4955009;27;20088;-83
2021/03/03 07:29:57;;;;;;;58.13;14.57;;;0.10;99.90;;;;;;4952968;27;20450;-86
2021/03/03 07:32:21;;;;;;;87.03;17.38;;;-1.50;99.90;;;;;;4952450;27;20089;-85
2021/03/03 07:34:51;;;;;;;73.28;15.40;;;0.20;99.90;;;;;;4955418;27;20158;-86
2021/03/03 07:37:21;;;;;;;69.25;15.80;;;0.30;99.90;;;;;;4957854;27;20094;-86
2021/03/03 07:39:48;;;;;;;93.82;17.20;;;0.50;99.90;;;;;;4955130;27;20083;-85
2021/03/03 07:42:19;;;;;;;76.47;16.60;;;0.60;99.90;;;;;;4953999;27;20077;-86
2021/03/03 07:44:47;;;;;;;94.47;16.75;;;0.70;99.90;;;;;;4950704;27;20114;-87
2021/03/03 07:47:12;;;;;;;69.65;16.65;;;0.80;99.90;;;;;;4951175;27;20091;-85
2021/03/03 07:49:36;;;;;;;98.88;15.82;;;0.90;99.90;;;;;;4954647;27;20147;-86
2021/03/03 07:52:01;;;;;;;78.95;16.15;;;0.90;99.90;;;;;;4959931;27;20081;-87
2021/03/03 07:54:26;;;;;;;74.88;15.20;;;1.00;99.90;;;;;;4952426;27;20142;-86
2021/03/03 07:56:49;;;;;;;73.50;16.55;;;1.00;99.90;;;;;;4953263;27;20418;-86
2021/03/03 07:59:16;;;;;;;96.70;16.60;;;1.10;99.90;;;;;;4955361;27;20097;-86
2021/03/03 08:01:39;;;;;;;96.43;17.08;;;1.10;99.90;;;;;;4958610;27;20085;-86
2021/03/03 08:04:02;;;;;;;78.63;16.52;;;1.00;99.90;;;;;;4952688;27;20094;-86
2021/03/03 08:06:39;;;;;;;82.55;16.80;;;1.10;99.90;;;;;;4948056;27;20590;-86
2021/03/03 08:09:20;;;;;;;77.07;15.50;;;1.20;99.90;;;;;;4950024;27;22345;-85
2021/03/03 08:12:17;;;;;;;79.25;16.50;;;1.30;99.90;;;;;;4945285;27;20097;-87
2021/03/03 08:15:30;;;;;;;46.78;15.10;;;1.40;99.90;;;;;;4957392;27;20105;-88
2021/03/03 08:17:53;;;;;;;60.55;16.25;;;1.50;99.90;;;;;;4954592;27;20094;-89
2021/03/03 08:20:30;;;;;;;68.32;15.95;;;1.60;99.90;;;;;;4955627;27;20093;-89
2021/03/03 08:22:54;;;;;;;55.88;13.48;;;1.70;99.90;;;;;;4958342;27;20191;-90
2021/03/03 08:25:43;;;;;;;40.67;15.38;;;1.70;99.90;;;;;;4958261;27;20078;-90
2021/03/03 08:28:26;;;;;;;67.30;14.30;;;2.00;99.90;;;;;;4955600;27;20081;-88
2021/03/03 08:31:28;;;;;;;56.83;13.43;;;2.30;99.90;;;;;;4947544;27;20077;-90
2021/03/03 08:34:04;;;;;;;44.33;12.85;;;2.70;99.90;;;;;;4952374;27;20081;-86
2021/03/03 08:37:00;;;;;;;26.88;12.70;;;3.10;99.90;;;;;;4952511;27;20081;-90
2021/03/03 08:39:49;;;;;;;32.90;12.35;;;3.40;99.90;;;;;;4949473;27;20086;-86
2021/03/03 08:42:35;;;;;;;26.25;11.10;;;3.80;99.90;;;;;;4945695;28;20552;-88
2021/03/03 08:45:06;;;;;;;19.20;10.30;;;4.10;99.90;;;;;;4955342;27;20085;-90
2021/03/03 08:47:52;;;;;;;39.90;11.13;;;4.70;99.90;;;;;;4949233;27;20532;-89
2021/03/03 08:50:35;;;;;;;;;;;4.80;99.90;;;;;;4953305;27;20078;-90
2021/03/03 08:53:19;;;;;;;23.73;9.73;;;5.60;99.90;;;;;;4955937;27;19962;-86
2021/03/03 08:55:49;;;;;;;22.27;9.85;;;5.90;99.90;;;;;;4956326;27;20089;-87
2021/03/03 08:58:58;;;;;;;20.33;9.35;;;6.10;99.90;;;;;;4953254;27;20169;-89
2021/03/03 09:02:15;;;;;;;18.42;9.15;;;6.40;99.90;;;;;;4922667;27;20098;-90
2021/03/03 09:04:59;;;;;;;16.63;8.88;;;6.90;99.90;;;;;;4909064;27;20085;-87
2021/03/03 09:07:24;;;;;;;16.48;9.35;;;7.20;99.90;;;;;;4898455;27;20087;-87
2021/03/03 09:10:15;;;;;;;18.33;8.52;;;7.20;99.90;;;;;;4884873;27;20081;-89
2021/03/03 09:13:04;;;;;;;17.23;8.30;;;6.80;99.90;;;;;;4888325;27;20430;-88
2021/03/03 09:15:34;;;;;;;19.48;10.05;;;6.20;99.90;;;;;;4893438;27;20098;-87
2021/03/03 09:18:29;;;;;;;17.27;9.68;;;6.70;99.90;;;;;;4891226;27;20154;-89
2021/03/03 09:21:28;;;;;;;18.98;9.98;;;6.30;99.90;;;;;;4901708;27;20531;-88
2021/03/03 09:24:16;;;;;;;25.42;10.05;;;6.40;99.90;;;;;;4888618;27;21951;-90
2021/03/03 09:30:22;;;;;;;26.83;12.45;;;8.00;99.90;;;;;;4889705;27;20434;-89
2021/03/03 09:36:13;;;;;;;26.27;11.93;;;10.90;99.90;;;;;;4883965;27;20090;-91
2021/03/03 09:39:13;;;;;;;19.90;11.27;;;11.90;99.90;;;;;;4898084;27;20090;-91
2021/03/03 09:45:14;;;;;;;21.30;10.82;;;12.20;99.90;;;;;;4879902;27;20086;-91
2021/03/03 09:47:56;;;;;;;23.20;11.07;;;12.10;99.90;;;;;;4894003;27;20081;-89
2021/03/03 09:50:55;;;;;;;22.35;11.70;;;11.90;99.90;;;;;;4881886;27;20128;-89
2021/03/03 10:06:30;;;;;;;23.88;13.82;;;10.70;99.90;;;;;;4887536;27;20610;-88
2021/03/03 10:16:08;;;;;;;26.63;13.15;;;9.60;99.90;;;;;;4876833;27;20170;-90
2021/03/03 10:18:31;;;;;;;25.55;12.63;;;9.40;99.90;;;;;;4890435;27;20113;-88
2021/03/03 10:21:28;;;;;;;25.27;13.07;;;9.40;99.90;;;;;;4901807;27;20089;-87
2021/03/03 10:27:20;;;;;;;26.85;13.75;;;9.00;99.90;;;;;;4886966;27;20087;-89
2021/03/03 10:30:26;;;;;;;28.23;14.80;;;9.00;99.90;;;;;;4892249;27;20097;-87
2021/03/03 10:33:25;;;;;;;29.10;14.48;;;9.30;99.90;;;;;;4880222;27;20097;-90
2021/03/03 10:39:21;;;;;;;33.28;14.65;;;9.70;99.90;;;;;;4869430;27;20151;-89
2021/03/03 10:41:46;;;;;;;28.27;13.82;;;9.80;99.90;;;;;;4933589;28;20111;-87
2021/03/03 10:44:40;;;;;;;28.55;15.05;;;9.70;99.90;;;;;;4914533;28;20458;-88
2021/03/03 10:47:39;;;;;;;32.33;14.13;;;9.70;99.90;;;;;;4907332;27;20095;-88
2021/03/03 10:50:13;;;;;;;31.52;14.15;;;9.80;99.90;;;;;;4889959;27;20080;-89
2021/03/03 10:53:01;;;;;;;30.40;13.85;;;9.70;99.90;;;;;;4909251;27;20122;-87
2021/03/03 10:55:25;;;;;;;37.20;15.18;;;9.80;99.90;;;;;;4952141;27;20086;-88
2021/03/03 10:58:07;;;;;;;36.00;14.93;;;10.00;99.90;;;;;;4949824;27;20763;-87
2021/03/03 11:00:33;;;;;;;28.58;14.52;;;10.10;99.90;;;;;;4948658;27;20086;-87
2021/03/03 11:03:02;;;;;;;;;;;10.10;99.90;;;;;;4950578;27;20130;-88
2021/03/03 11:05:25;;;;;;;31.77;14.40;;;10.30;99.90;;;;;;4951970;27;19957;-86
2021/03/03 11:07:49;;;;;;;33.50;14.10;;;10.20;99.90;;;;;;4957385;27;20106;-88
2021/03/03 11:10:11;;;;;;;35.70;14.80;;;10.30;99.90;;;;;;4953288;27;20080;-85
2021/03/03 11:12:43;;;;;;;33.22;15.52;;;10.50;99.90;;;;;;4959797;27;20524;-88
2021/03/03 11:15:07;;;;;;;40.17;16.05;;;10.60;99.90;;;;;;4951493;27;20083;-88
2021/03/03 11:17:41;;;;;;;34.05;15.05;;;10.60;99.90;;;;;;4954474;27;20073;-88
2021/03/03 11:20:07;;;;;;;36.00;16.40;;;10.60;99.90;;;;;;4949824;27;20090;-87
2021/03/03 11:22:30;;;;;;;36.55;16.77;;;10.60;99.90;;;;;;4958675;27;20503;-86
2021/03/03 11:24:52;;;;;;;37.15;16.75;;;10.60;99.90;;;;;;4949686;27;20142;-87
2021/03/03 11:27:16;;;;;;;38.90;16.55;;;10.70;99.90;;;;;;4948405;27;20075;-87
2021/03/03 11:29:45;;;;;;;37.45;16.30;;;10.90;99.90;;;;;;4949252;27;20082;-86
2021/03/03 11:32:14;;;;;;;39.47;17.92;;;11.10;99.90;;;;;;4958354;27;20083;-86
2021/03/03 11:34:40;;;;;;;39.83;15.75;;;11.10;99.90;;;;;;4957885;27;20125;-88
2021/03/03 11:37:04;;;;;;;34.97;16.23;;;11.10;99.90;;;;;;4952776;27;20076;-87
2021/03/03 11:39:27;;;;;;;40.00;16.60;;;11.10;99.90;;;;;;4954602;27;20115;-86
2021/03/03 11:41:52;;;;;;;39.75;16.92;;;11.10;99.90;;;;;;4951177;27;20584;-86
2021/03/03 11:44:15;;;;;;;39.03;16.17;;;11.20;99.90;;;;;;4952971;27;20105;-86
2021/03/03 11:46:38;;;;;;;40.17;17.02;;;11.20;99.90;;;;;;4953191;27;20087;-87
2021/03/03 11:49:07;;;;;;;47.40;18.77;;;11.20;99.90;;;;;;4954080;27;20426;-88
2021/03/03 11:51:31;;;;;;;39.20;16.23;;;11.20;99.90;;;;;;4958755;27;20079;-89
2021/03/03 11:53:58;;;;;;;40.10;17.45;;;11.20;99.90;;;;;;4951367;27;20090;-89
2021/03/03 11:56:21;;;;;;;38.83;16.90;;;11.30;99.90;;;;;;4951399;27;20129;-87
2021/03/03 11:58:49;;;;;;;37.00;16.92;;;11.40;99.90;;;;;;4955325;27;20088;-88
2021/03/03 12:01:17;;;;;;;34.30;15.68;;;11.40;99.90;;;;;;4953465;27;20150;-89
2021/03/03 12:03:41;;;;;;;35.03;16.92;;;11.50;99.90;;;;;;4942237;27;20075;-89
2021/03/03 12:06:05;;;;;;;35.17;16.27;;;11.40;99.90;;;;;;4959792;27;20080;-88
2021/03/03 12:08:29;;;;;;;39.42;16.48;;;11.40;99.90;;;;;;4951439;27;20530;-88
2021/03/03 12:10:52;;;;;;;35.17;16.15;;;11.50;99.90;;;;;;4950071;27;20087;-88
2021/03/03 12:13:14;;;;;;;32.83;14.32;;;11.60;99.90;;;;;;4951245;27;20079;-89
2021/03/03 12:15:37;;;;;;;39.85;15.68;;;11.60;99.90;;;;;;4957461;27;20076;-89
2021/03/03 12:18:00;;;;;;;33.85;15.38;;;11.70;99.90;;;;;;4954573;27;20083;-89
2021/03/03 12:20:24;;;;;;;35.95;16.65;;;11.60;99.90;;;;;;4955647;27;20079;-87
2021/03/03 12:22:54;;;;;;;34.35;14.98;;;11.70;99.90;;;;;;4964016;27;20080;-90
2021/03/03 12:25:17;;;;;;;33.75;15.85;;;11.70;99.90;;;;;;4957298;27;20087;-89
2021/03/03 12:27:40;;;;;;;35.47;15.73;;;11.70;99.90;;;;;;4954872;27;20084;-89
2021/03/03 12:30:10;;;;;;;35.97;16.13;;;11.80;99.90;;;;;;4954298;27;20084;-89
2021/03/03 12:32:32;;;;;;;31.73;15.00;;;;;;;;;;4954716;27;20477;-88
2021/03/03 12:34:55;;;;;;;31.10;14.70;;;11.90;99.90;;;;;;4948639;27;20121;-88
2021/03/03 12:37:17;;;;;;;39.05;16.73;;;11.90;99.90;;;;;;4957813;27;20076;-88
2021/03/03 12:39:40;;;;;;;33.53;15.07;;;12.00;99.90;;;;;;4947125;27;20454;-87
2021/03/03 12:42:04;;;;;;;34.38;14.82;;;12.10;99.90;;;;;;4951904;28;20084;-84
2021/03/03 12:44:29;;;;;;;31.55;14.40;;;12.10;99.90;;;;;;4960262;27;20091;-86
2021/03/03 12:46:52;;;;;;;36.25;14.43;;;12.10;99.90;;;;;;4960886;27;20507;-88
2021/03/03 12:49:15;;;;;;;33.72;14.98;;;12.20;99.90;;;;;;4953742;27;20087;-88
2021/03/03 12:51:45;;;;;;;30.95;14.40;;;12.20;99.90;;;;;;4954289;27;20083;-87
2021/03/03 12:54:10;;;;;;;28.52;13.88;;;12.20;99.90;;;;;;4950645;27;20087;-88
2021/03/03 12:56:33;;;;;;;37.33;15.02;;;12.30;99.90;;;;;;4937524;28;20821;-88
2021/03/03 12:59:02;;;;;;;34.53;13.73;;;12.30;99.90;;;;;;4927648;28;20490;-88
2021/03/03 13:01:24;;;;;;;36.92;15.05;;;12.20;99.90;;;;;;4947101;28;20080;-86
2021/03/03 13:03:48;;;;;;;33.33;14.30;;;12.20;99.90;;;;;;4945848;28;20446;-88
2021/03/03 13:06:11;;;;;;;30.77;13.95;;;12.30;99.90;;;;;;4951373;27;20103;-86
2021/03/03 13:08:34;;;;;;;34.60;13.63;;;12.30;99.90;;;;;;4949561;28;20080;-87
2021/03/03 13:11:05;;;;;;;31.75;13.90;;;12.40;99.90;;;;;;4950642;28;20495;-87
2021/03/03 13:13:28;;;;;;;32.88;14.55;;;12.50;99.90;;;;;;4950149;28;20091;-87
2021/03/03 13:15:52;;;;;;;28.70;13.15;;;12.50;99.90;;;;;;4951062;28;20072;-88